Time;durP1;ratioP1;P1;durP2;ratioP2;P2;SDS_P1;SDS_P2;PMS_P1;PMS_P2;Temp;Humidity;BMP_temperature;BMP_pressure;BME280_temperature;BME280_humidity;BME280_pressure;Samples;Min_cycle;Max_cycle;Signal;HPM_P1;HPM_P2
2022/08/05 00:02:26;;;;;;;9.50;8.60;;;28.00;58.10;;;;;;5057824;28;20200;-52
2022/08/05 00:04:54;;;;;;;9.97;8.90;;;28.00;58.30;;;;;;5039935;28;20981;-52
2022/08/05 00:07:22;;;;;;;10.50;8.57;;;27.90;58.60;;;;;;5058269;28;21164;-53
2022/08/05 00:10:09;;;;;;;11.80;8.43;;;27.90;58.70;;;;;;5045285;28;20454;-52
2022/08/05 00:12:36;;;;;;;8.87;7.97;;;27.80;59.20;;;;;;5049043;28;20958;-52
2022/08/05 00:15:23;;;;;;;9.90;7.37;;;27.80;59.40;;;;;;5059989;28;20483;-52
2022/08/05 00:18:10;;;;;;;8.23;7.53;;;27.80;59.50;;;;;;5045804;28;20456;-52
2022/08/05 00:20:49;;;;;;;8.30;7.60;;;27.70;59.70;;;;;;5060100;28;20468;-52
2022/08/05 00:23:16;;;;;;;8.23;7.40;;;27.70;59.80;;;;;;5043014;28;20455;-52
2022/08/05 00:26:03;;;;;;;7.60;6.90;;;27.60;59.90;;;;;;5029149;28;20448;-52
2022/08/05 00:28:30;;;;;;;6.67;6.10;;;27.60;60.00;;;;;;5057683;28;20210;-52
2022/08/05 00:30:58;;;;;;;8.73;5.80;;;27.60;60.10;;;;;;5071868;28;21005;-57
2022/08/05 00:33:31;;;;;;;6.80;4.90;;;27.60;60.00;;;;;;5029617;28;20503;-52
2022/08/05 00:36:17;;;;;;;5.20;4.03;;;27.50;59.90;;;;;;5062091;28;20843;-52
2022/08/05 00:39:04;;;;;;;5.80;3.97;;;27.50;60.10;;;;;;5054089;28;20575;-52
2022/08/05 00:41:44;;;;;;;4.87;3.63;;;27.50;59.60;;;;;;5044137;28;20456;-52
2022/08/05 00:44:21;;;;;;;6.97;3.80;;;27.40;58.80;;;;;;5046011;28;20512;-52
2022/08/05 00:46:55;;;;;;;5.07;4.20;;;27.40;58.80;;;;;;5059161;28;20539;-52
2022/08/05 00:49:30;;;;;;;4.03;3.73;;;27.40;58.70;;;;;;5057737;28;20995;-52
2022/08/05 00:51:58;;;;;;;7.43;3.77;;;27.40;58.70;;;;;;5058854;28;20458;-52
2022/08/05 00:54:25;;;;;;;4.33;3.70;;;27.40;58.60;;;;;;5058131;28;20487;-53
2022/08/05 00:56:55;;;;;;;5.10;3.50;;;27.40;58.30;;;;;;5057219;28;20498;-52
2022/08/05 00:59:22;;;;;;;6.77;3.67;;;27.40;58.30;;;;;;5055866;28;20511;-52
2022/08/05 01:01:50;;;;;;;4.93;3.10;;;27.50;58.30;;;;;;5054812;28;20464;-52
2022/08/05 01:04:17;;;;;;;7.80;4.10;;;27.40;58.70;;;;;;5057453;28;20557;-52
2022/08/05 01:06:52;;;;;;;4.33;3.50;;;27.40;59.20;;;;;;5059915;28;20959;-52
2022/08/05 01:09:21;;;;;;;4.53;4.10;;;27.40;60.50;;;;;;5055826;28;20457;-51
2022/08/05 01:11:50;;;;;;;8.70;5.47;;;27.40;61.40;;;;;;5033343;28;20486;-51
2022/08/05 01:14:35;;;;;;;6.47;4.53;;;27.30;63.30;;;;;;5046319;28;20497;-51
2022/08/05 01:17:05;;;;;;;9.20;4.80;;;27.20;64.80;;;;;;5058224;28;20454;-51
2022/08/05 01:19:49;;;;;;;5.90;4.77;;;27.20;66.20;;;;;;5060841;28;20446;-51
2022/08/05 01:22:53;;;;;;;10.13;5.80;;;27.00;68.00;;;;;;5043318;28;20466;-51
2022/08/05 01:25:58;;;;;;;7.10;4.80;;;26.90;68.60;;;;;;5070971;28;20452;-51
2022/08/05 01:28:35;;;;;;;9.97;5.23;;;26.70;68.60;;;;;;5030243;28;20480;-51
2022/08/05 01:31:47;;;;;;;8.50;5.20;;;26.60;69.10;;;;;;5059073;28;20449;-51
2022/08/05 01:34:21;;;;;;;9.37;5.80;;;26.40;70.20;;;;;;5051328;28;20507;-51
2022/08/05 01:37:04;;;;;;;7.80;5.73;;;26.30;71.10;;;;;;5058976;28;20454;-51
2022/08/05 01:39:35;;;;;;;9.20;5.83;;;26.20;71.90;;;;;;5041923;28;20449;-51
2022/08/05 01:42:16;;;;;;;6.27;5.63;;;26.10;72.00;;;;;;5041911;28;20886;-51
2022/08/05 01:44:44;;;;;;;6.90;5.10;;;26.10;72.40;;;;;;5058048;28;20461;-50
2022/08/05 01:47:20;;;;;;;7.80;4.47;;;26.00;72.30;;;;;;5057234;28;20548;-51
2022/08/05 01:49:52;;;;;;;8.30;5.10;;;25.90;72.30;;;;;;5058329;28;20978;-51
2022/08/05 01:52:30;;;;;;;5.97;4.80;;;25.90;72.70;;;;;;5044956;28;20859;-51
2022/08/05 01:55:01;;;;;;;7.30;4.93;;;25.90;73.30;;;;;;5055925;28;20927;-51
2022/08/05 01:57:38;;;;;;;5.30;4.70;;;25.80;73.40;;;;;;5057344;28;20520;-51
2022/08/05 02:00:26;;;;;;;6.47;5.00;;;25.80;73.70;;;;;;5056295;28;20469;-51
2022/08/05 02:03:15;;;;;;;7.93;5.03;;;25.80;74.10;;;;;;5059416;28;20455;-51
2022/08/05 02:06:01;;;;;;;6.00;5.00;;;25.70;74.40;;;;;;5057609;28;20509;-51
2022/08/05 02:08:49;;;;;;;7.97;4.90;;;25.70;74.50;;;;;;5046434;28;20454;-52
2022/08/05 02:11:28;;;;;;;4.73;4.10;;;25.70;74.40;;;;;;5057051;28;20466;-52
2022/08/05 02:14:07;;;;;;;5.30;4.60;;;25.60;74.00;;;;;;5058762;28;20850;-51
2022/08/05 02:16:46;;;;;;;5.10;4.60;;;25.60;73.70;;;;;;5061211;28;20456;-52
2022/08/05 02:19:31;;;;;;;4.20;3.80;;;25.60;73.10;;;;;;5058345;28;20823;-52
2022/08/05 02:22:15;;;;;;;8.17;4.20;;;25.60;72.20;;;;;;5059248;28;20534;-51
2022/08/05 02:25:04;;;;;;;6.60;4.27;;;25.60;71.00;;;;;;5056968;28;20963;-51
2022/08/05 02:27:37;;;;;;;5.30;4.10;;;25.60;70.50;;;;;;5055839;28;20487;-51
2022/08/05 02:30:33;;;;;;;7.23;4.27;;;25.60;70.80;;;;;;5054721;28;20465;-51
2022/08/05 02:33:01;;;;;;;5.70;4.00;;;25.60;71.10;;;;;;5036682;28;20854;-52
2022/08/05 02:35:31;;;;;;;7.73;3.90;;;25.60;71.10;;;;;;5053743;28;20982;-52
2022/08/05 02:38:03;;;;;;;4.70;4.27;;;25.60;71.20;;;;;;5054832;28;20462;-52
2022/08/05 02:40:36;;;;;;;5.03;4.17;;;25.60;71.20;;;;;;5057142;28;20530;-52
2022/08/05 02:43:05;;;;;;;5.00;4.47;;;25.60;71.60;;;;;;5042860;28;20982;-52
2022/08/05 02:45:34;;;;;;;6.63;4.27;;;25.50;71.50;;;;;;5038058;28;20947;-52
2022/08/05 02:48:21;;;;;;;8.10;4.60;;;25.50;71.20;;;;;;5054302;28;20462;-52
2022/08/05 02:51:00;;;;;;;6.50;5.07;;;25.50;71.10;;;;;;5053367;28;20471;-52
2022/08/05 02:53:30;;;;;;;4.80;4.30;;;25.50;71.30;;;;;;5055110;28;20641;-52
2022/08/05 02:56:07;;;;;;;3.90;3.60;;;25.50;71.90;;;;;;5055667;28;20937;-51
2022/08/05 02:58:37;;;;;;;6.30;4.80;;;25.50;72.50;;;;;;5032803;28;20492;-51
2022/08/05 03:01:15;;;;;;;8.30;5.33;;;25.40;72.80;;;;;;5064401;28;20575;-51
2022/08/05 03:03:49;;;;;;;7.70;5.23;;;25.40;73.00;;;;;;5048773;28;20509;-51
2022/08/05 03:06:37;;;;;;;5.80;5.30;;;25.30;73.70;;;;;;5064168;28;21022;-51
2022/08/05 03:09:24;;;;;;;6.00;4.97;;;25.30;74.70;;;;;;5057794;28;20472;-51
2022/08/05 03:12:09;;;;;;;7.13;6.47;;;25.30;75.60;;;;;;5060115;28;20522;-51
2022/08/05 03:14:35;;;;;;;7.90;6.57;;;25.20;75.60;;;;;;5058905;28;20492;-51
2022/08/05 03:17:11;;;;;;;7.97;6.93;;;25.20;76.10;;;;;;5048379;28;20449;-52
2022/08/05 03:19:38;;;;;;;10.40;7.97;;;25.10;76.80;;;;;;5055062;28;20465;-51
2022/08/05 03:22:07;;;;;;;7.20;6.40;;;25.10;77.60;;;;;;5057680;28;21969;-51
2022/08/05 03:24:44;;;;;;;7.53;6.47;;;25.10;78.00;;;;;;5043848;28;20495;-51
2022/08/05 03:27:18;;;;;;;9.73;7.63;;;25.10;78.00;;;;;;5047074;28;20465;-51
2022/08/05 03:29:45;;;;;;;12.27;8.17;;;25.00;78.40;;;;;;5041049;28;21044;-52
2022/08/05 03:32:31;;;;;;;10.37;9.30;;;25.00;78.80;;;;;;5057481;28;20445;-51
2022/08/05 03:34:59;;;;;;;12.53;11.10;;;25.00;79.40;;;;;;5056666;28;20491;-51
2022/08/05 03:37:26;;;;;;;14.47;10.33;;;24.90;80.00;;;;;;5074955;28;20469;-51
2022/08/05 03:39:58;;;;;;;11.33;10.10;;;24.80;80.30;;;;;;5054682;28;20462;-51
2022/08/05 03:42:29;;;;;;;13.00;10.03;;;24.80;80.30;;;;;;5042174;28;21026;-51
2022/08/05 03:44:58;;;;;;;11.67;10.47;;;24.80;80.60;;;;;;5059813;28;20457;-51
2022/08/05 03:47:45;;;;;;;12.97;9.80;;;24.70;80.60;;;;;;5046953;28;20462;-51
2022/08/05 03:50:14;;;;;;;12.50;11.20;;;24.70;80.70;;;;;;5060828;28;20456;-51
2022/08/05 03:52:50;;;;;;;16.47;9.73;;;24.70;80.80;;;;;;5064244;28;20457;-51
2022/08/05 03:55:44;;;;;;;8.77;7.97;;;24.70;80.90;;;;;;5059580;28;20481;-51
2022/08/05 03:58:34;;;;;;;10.10;8.53;;;24.60;80.60;;;;;;5071908;28;20998;-51
2022/08/05 04:01:03;;;;;;;11.23;8.50;;;24.60;80.40;;;;;;5058264;28;20842;-51
2022/08/05 04:03:34;;;;;;;9.17;8.27;;;24.60;80.60;;;;;;5041358;28;20464;-51
2022/08/05 04:06:05;;;;;;;7.90;7.10;;;24.60;80.70;;;;;;5061415;28;20463;-52
2022/08/05 04:08:35;;;;;;;9.20;7.20;;;24.60;80.50;;;;;;5046130;28;20488;-51
2022/08/05 04:11:06;;;;;;;7.87;6.47;;;24.60;80.20;;;;;;5061337;28;20970;-52
2022/08/05 04:13:38;;;;;;;6.00;5.40;;;24.50;79.30;;;;;;5060239;28;20946;-51
2022/08/05 04:16:19;;;;;;;6.77;6.00;;;24.60;77.10;;;;;;5057753;28;20461;-51
2022/08/05 04:18:51;;;;;;;8.60;6.07;;;24.50;77.50;;;;;;5059371;28;20457;-51
2022/08/05 04:21:20;;;;;;;7.73;7.03;;;24.50;78.70;;;;;;5049466;28;20511;-51
2022/08/05 04:24:07;;;;;;;7.80;6.00;;;24.50;79.00;;;;;;5048274;28;21017;-51
2022/08/05 04:26:45;;;;;;;7.47;6.20;;;24.50;78.30;;;;;;5045588;28;20510;-51
2022/08/05 04:29:12;;;;;;;7.20;5.97;;;24.50;77.60;;;;;;5063021;28;20444;-52
2022/08/05 04:31:40;;;;;;;7.03;5.77;;;24.50;77.50;;;;;;5062297;28;20446;-51
2022/08/05 04:34:08;;;;;;;7.37;5.87;;;24.50;77.50;;;;;;5046065;28;20489;-51
2022/08/05 04:36:55;;;;;;;11.07;7.37;;;24.50;77.60;;;;;;5061412;28;20464;-51
2022/08/05 04:39:22;;;;;;;7.27;6.50;;;24.50;77.60;;;;;;5059481;28;20628;-51
2022/08/05 04:41:50;;;;;;;10.73;7.00;;;24.50;77.60;;;;;;5047946;28;20519;-51
2022/08/05 04:44:23;;;;;;;8.80;6.10;;;24.50;77.30;;;;;;5066488;28;20457;-53
2022/08/05 04:46:58;;;;;;;7.13;6.43;;;24.50;77.00;;;;;;5062156;28;20469;-51
2022/08/05 04:49:26;;;;;;;7.60;6.67;;;24.40;77.10;;;;;;5061939;28;20456;-51
2022/08/05 04:52:13;;;;;;;7.67;6.23;;;24.50;77.50;;;;;;5057161;28;20450;-51
2022/08/05 04:54:40;;;;;;;6.67;5.90;;;24.50;77.70;;;;;;5046355;28;21040;-51
2022/08/05 04:57:07;;;;;;;7.27;6.17;;;24.50;77.30;;;;;;5063363;28;20471;-51
2022/08/05 04:59:34;;;;;;;7.53;6.53;;;24.50;77.50;;;;;;5059041;28;20457;-51
2022/08/05 05:02:06;;;;;;;6.37;5.47;;;24.50;78.10;;;;;;5061221;28;20456;-51
2022/08/05 05:04:53;;;;;;;8.67;5.97;;;24.60;78.10;;;;;;5075778;28;20452;-51
2022/08/05 05:07:29;;;;;;;9.03;6.10;;;24.50;78.10;;;;;;5061278;28;20520;-51
2022/08/05 05:09:58;;;;;;;6.77;5.80;;;24.50;78.00;;;;;;5052186;28;20488;-51
2022/08/05 05:12:28;;;;;;;6.27;5.30;;;24.60;78.20;;;;;;5051958;28;20543;-51
2022/08/05 05:14:55;;;;;;;9.17;5.37;;;24.50;77.70;;;;;;5061931;28;20492;-51
2022/08/05 05:17:22;;;;;;;5.10;4.10;;;24.50;76.80;;;;;;5065638;28;20457;-51
2022/08/05 05:20:10;;;;;;;5.20;4.70;;;24.50;77.00;;;;;;5063351;28;20453;-51
2022/08/05 05:22:37;;;;;;;4.13;3.67;;;24.50;76.50;;;;;;5051523;28;20458;-51
2022/08/05 05:25:07;;;;;;;4.93;4.27;;;24.60;76.40;;;;;;5057367;28;20494;-51
2022/08/05 05:27:43;;;;;;;4.90;4.50;;;24.60;75.90;;;;;;5038321;28;20461;-51
2022/08/05 05:30:22;;;;;;;4.93;4.10;;;24.60;76.10;;;;;;5063108;28;20488;-51
2022/08/05 05:33:00;;;;;;;4.67;4.27;;;24.60;75.90;;;;;;5066545;28;20539;-50
2022/08/05 05:35:46;;;;;;;6.30;4.20;;;24.70;76.10;;;;;;5061317;28;20483;-51
2022/08/05 05:38:13;;;;;;;4.83;4.33;;;24.60;76.00;;;;;;5043957;28;20457;-51
2022/08/05 05:40:48;;;;;;;6.90;5.00;;;24.60;75.90;;;;;;5046509;28;20465;-51
2022/08/05 05:43:21;;;;;;;6.93;4.40;;;24.60;76.40;;;;;;5063821;28;20511;-51
2022/08/05 05:46:08;;;;;;;5.40;4.13;;;24.60;76.40;;;;;;5061336;28;20457;-51
2022/08/05 05:48:44;;;;;;;5.60;4.77;;;24.60;76.20;;;;;;5063762;28;20457;-51
2022/08/05 05:51:17;;;;;;;6.43;4.20;;;24.70;76.20;;;;;;5067647;28;20859;-51
2022/08/05 05:53:44;;;;;;;6.10;4.57;;;24.70;76.10;;;;;;5045389;28;20945;-51
2022/08/05 05:56:23;;;;;;;5.93;4.50;;;24.60;76.20;;;;;;5061782;28;20485;-51
2022/08/05 05:58:59;;;;;;;5.47;4.20;;;24.60;76.30;;;;;;5058866;28;20493;-52
2022/08/05 06:01:30;;;;;;;5.53;3.90;;;24.60;76.00;;;;;;5059266;28;20506;-51
2022/08/05 06:04:07;;;;;;;4.53;4.07;;;24.70;76.40;;;;;;5046390;28;20460;-51
2022/08/05 06:06:41;;;;;;;6.83;4.10;;;24.60;76.90;;;;;;5064002;28;20462;-50
2022/08/05 06:09:13;;;;;;;7.07;5.03;;;24.60;76.30;;;;;;5063284;28;21017;-51
2022/08/05 06:11:51;;;;;;;4.53;3.97;;;24.60;76.10;;;;;;5045929;28;20517;-51
2022/08/05 06:14:32;;;;;;;4.90;4.43;;;24.70;76.30;;;;;;5047802;28;20504;-51
2022/08/05 06:17:01;;;;;;;4.90;4.23;;;24.70;76.00;;;;;;5065137;28;20491;-51
2022/08/05 06:19:48;;;;;;;9.10;4.57;;;24.70;75.50;;;;;;5050831;28;20466;-51
2022/08/05 06:22:28;;;;;;;5.20;4.03;;;24.70;76.20;;;;;;5061350;28;20535;-50
2022/08/05 06:24:56;;;;;;;4.33;3.93;;;24.70;76.30;;;;;;5060090;28;20495;-50
2022/08/05 06:27:23;;;;;;;4.20;3.80;;;24.70;75.90;;;;;;5053044;28;20441;-51
2022/08/05 06:30:14;;;;;;;4.63;4.20;;;24.70;75.40;;;;;;5060722;28;20461;-51
2022/08/05 06:32:46;;;;;;;5.03;4.47;;;24.70;74.90;;;;;;5044712;28;20538;-51
2022/08/05 06:35:16;;;;;;;4.90;4.50;;;24.70;74.80;;;;;;5032416;28;21017;-51
2022/08/05 06:38:02;;;;;;;5.00;4.17;;;24.70;74.80;;;;;;5059959;28;20457;-51
2022/08/05 06:40:38;;;;;;;4.07;3.67;;;24.70;74.30;;;;;;5062202;28;20541;-51
2022/08/05 06:43:11;;;;;;;8.33;4.53;;;24.80;74.70;;;;;;5065158;28;20814;-51
2022/08/05 06:45:57;;;;;;;5.00;4.50;;;24.90;75.80;;;;;;5062234;28;20462;-51
2022/08/05 06:48:33;;;;;;;5.63;4.47;;;24.90;76.20;;;;;;5058277;28;20465;-51
2022/08/05 06:51:20;;;;;;;4.43;4.03;;;24.90;76.40;;;;;;5054166;28;20953;-50
2022/08/05 06:53:58;;;;;;;4.80;4.07;;;24.90;76.10;;;;;;5060460;28;20469;-53
2022/08/05 06:56:28;;;;;;;4.53;4.13;;;25.00;76.60;;;;;;5064302;28;20462;-51
2022/08/05 06:58:55;;;;;;;5.03;3.80;;;25.00;76.40;;;;;;5061174;28;20865;-51
2022/08/05 07:01:22;;;;;;;6.13;4.50;;;25.00;75.90;;;;;;5044828;28;20976;-51
2022/08/05 07:04:00;;;;;;;5.67;4.57;;;25.00;75.30;;;;;;5062924;28;20598;-51
2022/08/05 07:06:28;;;;;;;4.77;4.30;;;25.10;74.30;;;;;;5058647;28;20461;-51
2022/08/05 07:08:55;;;;;;;4.30;3.90;;;25.20;73.90;;;;;;5059297;28;20454;-51
2022/08/05 07:11:26;;;;;;;7.80;4.53;;;25.20;73.90;;;;;;5061751;28;20999;-51
2022/08/05 07:16:49;;;;;;;4.50;4.00;;;25.20;74.10;;;;;;5066264;28;20460;-51
2022/08/05 07:19:37;;;;;;;4.97;4.30;;;25.30;74.00;;;;;;5061564;28;20454;-51
2022/08/05 07:22:23;;;;;;;4.80;3.80;;;25.30;73.50;;;;;;5052046;28;20966;-51
2022/08/05 07:25:02;;;;;;;4.80;3.70;;;25.40;73.30;;;;;;5062525;28;20861;-50
2022/08/05 07:27:50;;;;;;;4.53;4.13;;;25.40;73.00;;;;;;5060769;28;20508;-51
2022/08/05 07:30:32;;;;;;;4.60;3.80;;;25.50;72.60;;;;;;5065484;28;20535;-52
2022/08/05 07:33:02;;;;;;;5.93;3.80;;;25.50;71.80;;;;;;5075314;28;20467;-52
2022/08/05 07:35:31;;;;;;;7.83;5.37;;;25.50;71.40;;;;;;5064061;28;20504;-52
2022/08/05 07:38:18;;;;;;;5.07;3.60;;;25.50;71.80;;;;;;5056807;28;20988;-52
2022/08/05 07:41:02;;;;;;;4.07;3.37;;;25.50;71.80;;;;;;5060037;28;20660;-52
2022/08/05 07:43:50;;;;;;;5.13;3.77;;;25.50;71.80;;;;;;5063493;28;21005;-52
2022/08/05 07:46:17;;;;;;;3.70;3.30;;;25.50;71.60;;;;;;5060258;28;20449;-52
2022/08/05 07:48:52;;;;;;;4.47;4.07;;;25.50;71.30;;;;;;5062640;28;20461;-52
2022/08/05 07:51:35;;;;;;;5.60;3.97;;;25.50;71.30;;;;;;5062643;28;20504;-52
2022/08/05 07:54:20;;;;;;;5.50;4.40;;;25.50;71.50;;;;;;5036274;28;20449;-52
2022/08/05 07:56:48;;;;;;;5.17;3.60;;;25.50;71.60;;;;;;5064095;28;20484;-52
2022/08/05 07:59:35;;;;;;;4.23;3.83;;;25.60;71.90;;;;;;5060874;28;20437;-52
2022/08/05 08:02:10;;;;;;;4.13;3.80;;;25.70;71.80;;;;;;5062010;28;20453;-52
2022/08/05 08:04:46;;;;;;;4.83;4.40;;;25.70;71.70;;;;;;5063770;28;20500;-52
2022/08/05 08:07:15;;;;;;;4.97;4.10;;;25.80;71.20;;;;;;5042712;28;20832;-52
2022/08/05 08:09:44;;;;;;;3.80;3.50;;;25.80;70.30;;;;;;5045123;28;20526;-52
2022/08/05 08:12:15;;;;;;;4.37;3.83;;;25.90;69.50;;;;;;5064762;28;20446;-52
2022/08/05 08:15:02;;;;;;;3.80;3.50;;;25.90;69.10;;;;;;5051773;28;20474;-52
2022/08/05 08:17:31;;;;;;;3.90;3.57;;;25.90;68.70;;;;;;5063930;28;20473;-52
2022/08/05 08:19:58;;;;;;;4.57;3.20;;;26.00;69.00;;;;;;5057494;28;20461;-52
2022/08/05 08:22:58;;;;;;;3.50;3.20;;;26.00;68.80;;;;;;5061892;28;20460;-52
2022/08/05 08:25:28;;;;;;;4.00;3.30;;;26.00;68.50;;;;;;5055886;28;20490;-52
2022/08/05 08:28:15;;;;;;;4.50;4.10;;;26.00;67.90;;;;;;5061035;28;20937;-52
2022/08/05 08:31:01;;;;;;;4.37;3.97;;;26.00;67.50;;;;;;5048196;28;20465;-52
2022/08/05 08:33:30;;;;;;;3.73;3.23;;;26.00;67.60;;;;;;5066299;28;20460;-52
2022/08/05 08:36:06;;;;;;;3.97;3.03;;;26.00;67.20;;;;;;5047947;28;20532;-52
2022/08/05 08:38:54;;;;;;;4.37;2.90;;;26.00;66.80;;;;;;5061741;28;20878;-52
2022/08/05 08:41:24;;;;;;;4.43;3.87;;;26.00;66.50;;;;;;5060596;28;20856;-52
2022/08/05 08:44:14;;;;;;;2.97;2.70;;;26.10;65.00;;;;;;5064107;28;20468;-52
2022/08/05 08:47:03;;;;;;;2.90;2.70;;;26.00;64.90;;;;;;5053777;28;20530;-52
2022/08/05 08:49:52;;;;;;;4.13;3.00;;;26.10;64.10;;;;;;5060046;28;20454;-52
2022/08/05 08:52:44;;;;;;;3.90;2.77;;;26.10;63.80;;;;;;5057326;28;20467;-52
2022/08/05 08:55:18;;;;;;;4.47;3.20;;;26.10;63.30;;;;;;5060070;28;20538;-52
2022/08/05 08:58:05;;;;;;;3.30;2.90;;;26.10;63.30;;;;;;5065833;28;20491;-52
2022/08/05 09:00:34;;;;;;;3.20;2.90;;;26.00;63.40;;;;;;5059247;28;20453;-52
2022/08/05 09:03:05;;;;;;;3.60;3.00;;;26.00;63.70;;;;;;5075266;28;20491;-52
2022/08/05 09:05:32;;;;;;;4.87;3.13;;;26.00;63.80;;;;;;5045089;28;20490;-52
2022/08/05 09:08:04;;;;;;;3.73;3.43;;;26.00;63.50;;;;;;5059013;28;20457;-52
2022/08/05 09:10:35;;;;;;;3.67;3.37;;;26.00;63.60;;;;;;5059785;28;20820;-52
2022/08/05 09:13:06;;;;;;;3.60;3.30;;;26.00;63.60;;;;;;5062529;28;20538;-52
2022/08/05 09:15:33;;;;;;;3.30;3.00;;;26.00;63.90;;;;;;5049986;28;20554;-52
2022/08/05 09:18:06;;;;;;;3.40;3.10;;;26.00;64.40;;;;;;5066477;28;20453;-52
2022/08/05 09:20:35;;;;;;;3.90;3.00;;;26.00;64.50;;;;;;5062049;28;20955;-52
2022/08/05 09:23:11;;;;;;;15.03;4.17;;;26.00;64.50;;;;;;5046771;28;20821;-52
2022/08/05 09:25:51;;;;;;;2.83;2.63;;;26.00;64.30;;;;;;5060245;28;20465;-52
2022/08/05 09:28:30;;;;;;;4.00;3.07;;;26.00;64.40;;;;;;5075198;28;20465;-52
2022/08/05 09:31:05;;;;;;;4.07;3.70;;;26.00;64.80;;;;;;5057881;28;20846;-52
2022/08/05 09:34:12;;;;;;;3.57;3.10;;;26.00;65.40;;;;;;5059579;28;20507;-52
2022/08/05 09:36:48;;;;;;;4.80;3.23;;;25.90;65.30;;;;;;5058660;28;20497;-52
2022/08/05 09:39:23;;;;;;;5.67;2.73;;;25.80;64.90;;;;;;5059412;28;20469;-52
2022/08/05 09:42:05;;;;;;;3.77;3.30;;;25.80;64.70;;;;;;5060084;28;20457;-52
2022/08/05 09:44:43;;;;;;;3.63;3.33;;;25.80;64.60;;;;;;5059471;28;20457;-52
2022/08/05 09:47:26;;;;;;;3.33;3.03;;;25.80;64.60;;;;;;5048431;28;20754;-52
2022/08/05 09:50:12;;;;;;;3.10;2.90;;;25.80;64.60;;;;;;5047863;28;20484;-52
2022/08/05 09:52:59;;;;;;;4.57;3.10;;;25.80;64.00;;;;;;5046751;28;20798;-52
2022/08/05 09:55:26;;;;;;;3.57;3.27;;;25.70;64.20;;;;;;5056499;28;20483;-52
2022/08/05 09:58:14;;;;;;;3.87;3.47;;;25.70;64.60;;;;;;5057021;28;20488;-52
2022/08/05 10:01:00;;;;;;;3.00;2.70;;;25.80;64.70;;;;;;5044882;28;20460;-52
2022/08/05 10:03:39;;;;;;;3.20;2.90;;;25.80;64.80;;;;;;5043352;28;20512;-52
2022/08/05 10:06:26;;;;;;;3.40;3.10;;;25.80;64.70;;;;;;5058959;28;20476;-52
2022/08/05 10:08:54;;;;;;;3.23;2.93;;;25.90;64.30;;;;;;5057216;28;20801;-52
2022/08/05 10:11:22;;;;;;;3.40;3.10;;;25.90;64.80;;;;;;5040577;28;20958;-51
2022/08/05 10:13:49;;;;;;;4.57;3.30;;;26.00;64.90;;;;;;5043284;28;20501;-51
2022/08/05 10:16:32;;;;;;;5.53;3.50;;;26.00;64.60;;;;;;5048272;28;21296;-51
2022/08/05 10:19:07;;;;;;;4.30;3.23;;;26.10;64.70;;;;;;5068208;28;20469;-51
2022/08/05 10:21:36;;;;;;;3.80;3.50;;;26.10;64.50;;;;;;5028692;28;20475;-51
2022/08/05 10:24:12;;;;;;;3.83;3.50;;;26.10;64.70;;;;;;5042236;28;21551;-51
2022/08/05 10:26:44;;;;;;;4.50;3.90;;;26.10;64.40;;;;;;5053965;28;20462;-51
2022/08/05 10:29:20;;;;;;;4.10;3.70;;;26.20;64.30;;;;;;5056506;28;20465;-51
2022/08/05 10:32:07;;;;;;;4.37;3.30;;;26.20;64.40;;;;;;5045685;28;20882;-51
2022/08/05 10:34:56;;;;;;;4.13;3.73;;;26.20;64.10;;;;;;5059114;28;20508;-51
2022/08/05 10:37:29;;;;;;;4.60;3.50;;;26.20;64.00;;;;;;5059429;28;20444;-51
2022/08/05 10:40:20;;;;;;;3.73;3.50;;;26.30;64.20;;;;;;5054361;28;20475;-51
2022/08/05 10:43:00;;;;;;;3.80;3.17;;;26.30;64.00;;;;;;5054392;28;20468;-52
2022/08/05 10:45:29;;;;;;;4.20;3.80;;;26.30;63.60;;;;;;5052490;28;20464;-51
2022/08/05 10:48:47;;;;;;;3.43;3.07;;;26.30;63.80;;;;;;5058275;28;20464;-51
2022/08/05 10:51:24;;;;;;;4.43;3.00;;;26.40;63.70;;;;;;5057044;28;20468;-51
2022/08/05 10:53:57;;;;;;;3.50;3.27;;;26.50;63.80;;;;;;5040724;28;20457;-51
2022/08/05 10:56:47;;;;;;;2.77;2.57;;;26.50;63.80;;;;;;5056638;28;20487;-51
2022/08/05 10:59:25;;;;;;;5.07;3.63;;;26.50;63.60;;;;;;5040740;28;20830;-51
2022/08/05 11:02:13;;;;;;;3.73;3.37;;;26.50;63.70;;;;;;5045802;28;20510;-51
2022/08/05 11:05:09;;;;;;;3.80;3.40;;;26.50;63.60;;;;;;5047451;28;20461;-51
2022/08/05 11:07:56;;;;;;;4.17;3.60;;;26.40;64.10;;;;;;5037381;28;20572;-52
2022/08/05 11:10:31;;;;;;;5.03;3.50;;;26.40;64.10;;;;;;5055316;28;20950;-51
2022/08/05 11:12:58;;;;;;;3.60;3.30;;;26.30;64.00;;;;;;5046272;28;20462;-51
2022/08/05 11:15:42;;;;;;;6.47;3.70;;;26.30;64.20;;;;;;5070176;28;20463;-52
2022/08/05 11:18:32;;;;;;;5.80;4.43;;;26.30;64.60;;;;;;5056562;28;20465;-51
2022/08/05 11:21:04;;;;;;;7.73;4.20;;;26.20;65.10;;;;;;5052225;28;20465;-51
2022/08/05 11:23:53;;;;;;;6.60;4.20;;;26.30;65.10;;;;;;5029489;28;20545;-51
2022/08/05 11:26:40;;;;;;;3.80;3.50;;;26.30;65.20;;;;;;5037225;28;20461;-51
2022/08/05 11:29:41;;;;;;;4.43;4.03;;;26.40;65.00;;;;;;5032074;28;20887;-51
2022/08/05 11:32:28;;;;;;;5.20;4.43;;;26.40;64.60;;;;;;5050550;28;20472;-51
2022/08/05 11:34:56;;;;;;;4.63;4.23;;;26.50;64.80;;;;;;5047113;28;20541;-51
2022/08/05 11:37:38;;;;;;;4.87;3.90;;;26.50;64.90;;;;;;5029798;28;20485;-50
2022/08/05 11:40:55;;;;;;;6.83;4.37;;;26.60;64.50;;;;;;5045085;28;20456;-50
2022/08/05 11:43:29;;;;;;;5.73;4.00;;;26.60;64.10;;;;;;5034920;28;20454;-50
2022/08/05 11:46:15;;;;;;;4.30;3.90;;;26.70;64.00;;;;;;5053712;28;20831;-51
2022/08/05 11:49:00;;;;;;;4.23;3.83;;;26.70;63.80;;;;;;5056535;28;20896;-51
2022/08/05 11:51:28;;;;;;;5.63;4.30;;;26.80;63.30;;;;;;5048421;28;20553;-50
2022/08/05 11:54:36;;;;;;;4.17;3.77;;;26.80;63.30;;;;;;5043683;28;20502;-50
2022/08/05 11:57:04;;;;;;;5.40;5.00;;;26.80;63.80;;;;;;5054245;28;20546;-50
2022/08/05 11:59:51;;;;;;;4.40;3.80;;;26.90;63.30;;;;;;5055259;28;20452;-50
2022/08/05 12:02:27;;;;;;;5.60;4.10;;;27.00;62.90;;;;;;5055572;28;20460;-51
2022/08/05 12:05:01;;;;;;;4.70;4.30;;;27.00;63.10;;;;;;5053429;28;20876;-51
2022/08/05 12:07:35;;;;;;;5.07;4.57;;;27.00;63.20;;;;;;5055282;28;20468;-50
2022/08/05 12:10:25;;;;;;;4.97;4.57;;;27.00;63.80;;;;;;5064384;28;20465;-50
2022/08/05 12:13:16;;;;;;;4.10;3.70;;;27.10;63.30;;;;;;5050181;28;20468;-50
2022/08/05 12:16:16;;;;;;;4.80;4.40;;;27.10;63.20;;;;;;5060293;28;20574;-50
2022/08/05 12:18:44;;;;;;;3.93;3.63;;;27.20;63.30;;;;;;5062954;28;20459;-50
2022/08/05 12:21:18;;;;;;;4.47;4.07;;;27.20;63.50;;;;;;5055134;28;21038;-51
2022/08/05 12:24:08;;;;;;;5.13;4.63;;;27.30;63.70;;;;;;5065074;28;20452;-50
2022/08/05 12:26:43;;;;;;;5.43;4.60;;;27.30;63.60;;;;;;5061582;28;20573;-51
2022/08/05 12:29:15;;;;;;;5.33;4.90;;;27.40;63.20;;;;;;5052859;28;20462;-51
2022/08/05 12:31:46;;;;;;;4.50;4.10;;;27.40;63.00;;;;;;5056038;28;21126;-51
2022/08/05 12:34:29;;;;;;;5.27;4.47;;;27.40;63.20;;;;;;5046575;28;20547;-51
2022/08/05 12:37:09;;;;;;;5.50;5.00;;;27.40;63.40;;;;;;5058484;28;20551;-50
2022/08/05 12:39:39;;;;;;;6.57;5.97;;;27.40;63.40;;;;;;5058410;28;20460;-50
2022/08/05 12:42:12;;;;;;;6.77;5.60;;;27.40;62.80;;;;;;5063193;28;20980;-50
2022/08/05 12:44:41;;;;;;;8.17;5.50;;;27.40;62.70;;;;;;5063541;28;20237;-50
2022/08/05 12:47:10;;;;;;;6.63;5.63;;;27.40;62.80;;;;;;5053508;28;20460;-50
2022/08/05 12:49:40;;;;;;;6.50;6.00;;;27.40;62.40;;;;;;5045910;28;20668;-50
2022/08/05 12:52:27;;;;;;;5.23;4.60;;;27.40;62.10;;;;;;5056836;28;20457;-50
2022/08/05 12:55:20;;;;;;;8.20;5.37;;;27.40;61.40;;;;;;5060055;28;20742;-50
2022/08/05 12:57:52;;;;;;;5.60;5.03;;;27.50;61.60;;;;;;5061444;28;21146;-51
2022/08/05 13:00:44;;;;;;;5.80;5.23;;;27.60;60.70;;;;;;5055737;28;20452;-51
2022/08/05 13:03:34;;;;;;;6.07;5.20;;;27.60;60.70;;;;;;5060894;28;20655;-50
2022/08/05 13:06:08;;;;;;;5.47;5.07;;;27.50;61.20;;;;;;5064745;28;20217;-50
2022/08/05 13:08:37;;;;;;;5.70;5.00;;;27.50;60.70;;;;;;5042480;28;20211;-50
2022/08/05 13:11:06;;;;;;;6.60;4.83;;;27.50;60.20;;;;;;5046222;28;21020;-50
2022/08/05 13:13:38;;;;;;;5.50;5.00;;;27.40;60.50;;;;;;5062357;28;20207;-50
2022/08/05 13:16:25;;;;;;;5.43;4.93;;;27.40;60.30;;;;;;5062449;28;20600;-51
2022/08/05 13:18:55;;;;;;;5.47;4.97;;;27.30;60.40;;;;;;5041693;28;20533;-51
2022/08/05 13:21:25;;;;;;;6.10;5.60;;;27.20;61.10;;;;;;5054944;28;20460;-51
2022/08/05 13:24:04;;;;;;;7.30;5.57;;;27.10;62.10;;;;;;5054974;28;20457;-50
2022/08/05 13:26:31;;;;;;;8.50;6.50;;;27.00;63.90;;;;;;5056164;28;20454;-50
2022/08/05 13:28:58;;;;;;;7.87;6.20;;;26.90;65.50;;;;;;5045060;28;20468;-50
2022/08/05 13:31:26;;;;;;;9.30;6.70;;;26.80;68.40;;;;;;5042830;28;20905;-50
2022/08/05 13:34:14;;;;;;;6.37;5.77;;;26.70;68.70;;;;;;5059207;28;20445;-50
2022/08/05 13:36:52;;;;;;;12.63;7.80;;;26.40;69.60;;;;;;5057760;28;20472;-50
2022/08/05 13:39:19;;;;;;;9.53;7.87;;;26.20;71.00;;;;;;5056738;28;20553;-50
2022/08/05 13:42:07;;;;;;;12.90;8.77;;;26.10;73.00;;;;;;5058615;28;20512;-51